sensor_id;sensor_type;location;lat;lon;timestamp;temperature;humidity
76293;DHT22;65101;51.140;4.088;2023-01-01T00:00:10;20.50;53.10
76293;DHT22;65101;51.140;4.088;2023-01-01T00:02:36;20.50;53.20
76293;DHT22;65101;51.140;4.088;2023-01-01T00:05:02;20.50;53.10
76293;DHT22;65101;51.140;4.088;2023-01-01T00:07:28;20.50;53.10
76293;DHT22;65101;51.140;4.088;2023-01-01T00:09:54;20.40;52.90
76293;DHT22;65101;51.140;4.088;2023-01-01T00:12:38;20.40;53.10
76293;DHT22;65101;51.140;4.088;2023-01-01T00:15:04;20.40;53.20
76293;DHT22;65101;51.140;4.088;2023-01-01T00:17:30;20.40;53.10
76293;DHT22;65101;51.140;4.088;2023-01-01T00:19:56;20.30;53.00
76293;DHT22;65101;51.140;4.088;2023-01-01T00:22:21;20.40;53.10
76293;DHT22;65101;51.140;4.088;2023-01-01T00:24:47;20.40;53.00
76293;DHT22;65101;51.140;4.088;2023-01-01T00:27:12;20.30;52.90
76293;DHT22;65101;51.140;4.088;2023-01-01T00:29:38;20.30;53.00
76293;DHT22;65101;51.140;4.088;2023-01-01T00:32:04;20.30;53.00
76293;DHT22;65101;51.140;4.088;2023-01-01T00:34:29;20.30;53.00
76293;DHT22;65101;51.140;4.088;2023-01-01T00:36:56;20.30;52.90
76293;DHT22;65101;51.140;4.088;2023-01-01T00:39:21;20.30;52.90
76293;DHT22;65101;51.140;4.088;2023-01-01T00:41:47;20.30;52.90
76293;DHT22;65101;51.140;4.088;2023-01-01T00:44:13;20.20;52.90
76293;DHT22;65101;51.140;4.088;2023-01-01T00:46:38;20.20;52.80
76293;DHT22;65101;51.140;4.088;2023-01-01T00:49:04;20.20;52.80
76293;DHT22;65101;51.140;4.088;2023-01-01T00:51:29;20.20;52.70
76293;DHT22;65101;51.140;4.088;2023-01-01T00:53:55;20.20;52.70
76293;DHT22;65101;51.140;4.088;2023-01-01T00:56:21;20.10;52.70
76293;DHT22;65101;51.140;4.088;2023-01-01T00:58:47;20.10;52.90
76293;DHT22;65101;51.140;4.088;2023-01-01T01:01:13;20.10;52.90
76293;DHT22;65101;51.140;4.088;2023-01-01T01:03:39;20.00;52.80
76293;DHT22;65101;51.140;4.088;2023-01-01T01:08:33;20.10;52.70
76293;DHT22;65101;51.140;4.088;2023-01-01T01:13:30;20.00;52.60
76293;DHT22;65101;51.140;4.088;2023-01-01T01:15:56;20.10;52.60
76293;DHT22;65101;51.140;4.088;2023-01-01T01:18:22;20.10;52.50
76293;DHT22;65101;51.140;4.088;2023-01-01T01:20:52;20.10;52.40
76293;DHT22;65101;51.140;4.088;2023-01-01T01:23:19;20.00;52.50
76293;DHT22;65101;51.140;4.088;2023-01-01T01:25:45;20.00;52.40
76293;DHT22;65101;51.140;4.088;2023-01-01T01:28:11;20.00;52.40
76293;DHT22;65101;51.140;4.088;2023-01-01T01:30:37;20.00;52.40
76293;DHT22;65101;51.140;4.088;2023-01-01T01:33:03;20.00;52.30
76293;DHT22;65101;51.140;4.088;2023-01-01T01:35:29;20.00;52.30
76293;DHT22;65101;51.140;4.088;2023-01-01T01:37:55;20.00;52.30
76293;DHT22;65101;51.140;4.088;2023-01-01T01:40:21;20.00;52.30
76293;DHT22;65101;51.140;4.088;2023-01-01T01:42:48;20.00;52.20
76293;DHT22;65101;51.140;4.088;2023-01-01T01:45:15;20.00;52.20
76293;DHT22;65101;51.140;4.088;2023-01-01T01:48:06;19.90;52.20
76293;DHT22;65101;51.140;4.088;2023-01-01T01:50:38;19.90;52.30
76293;DHT22;65101;51.140;4.088;2023-01-01T01:53:17;19.90;52.30
76293;DHT22;65101;51.140;4.088;2023-01-01T01:55:51;19.90;52.40
76293;DHT22;65101;51.140;4.088;2023-01-01T01:58:17;19.90;52.30
76293;DHT22;65101;51.140;4.088;2023-01-01T02:00:44;19.80;52.20
76293;DHT22;65101;51.140;4.088;2023-01-01T02:05:41;19.80;52.20
76293;DHT22;65101;51.140;4.088;2023-01-01T02:08:07;19.90;52.10
76293;DHT22;65101;51.140;4.088;2023-01-01T02:10:34;19.80;52.10
76293;DHT22;65101;51.140;4.088;2023-01-01T02:13:00;19.80;52.30
76293;DHT22;65101;51.140;4.088;2023-01-01T02:15:29;19.70;52.60
76293;DHT22;65101;51.140;4.088;2023-01-01T02:18:09;19.70;52.30
76293;DHT22;65101;51.140;4.088;2023-01-01T02:20:58;19.80;52.30
76293;DHT22;65101;51.140;4.088;2023-01-01T02:23:36;19.70;52.40
76293;DHT22;65101;51.140;4.088;2023-01-01T02:26:21;19.70;52.50
76293;DHT22;65101;51.140;4.088;2023-01-01T02:29:02;19.70;52.50
76293;DHT22;65101;51.140;4.088;2023-01-01T02:31:34;19.70;52.50
76293;DHT22;65101;51.140;4.088;2023-01-01T02:34:06;19.60;52.40
76293;DHT22;65101;51.140;4.088;2023-01-01T02:36:32;19.60;52.50
76293;DHT22;65101;51.140;4.088;2023-01-01T02:39:03;19.60;52.60
76293;DHT22;65101;51.140;4.088;2023-01-01T02:41:37;19.60;52.50
76293;DHT22;65101;51.140;4.088;2023-01-01T02:44:04;19.60;52.80
76293;DHT22;65101;51.140;4.088;2023-01-01T02:46:32;19.50;52.90
76293;DHT22;65101;51.140;4.088;2023-01-01T02:48:57;19.50;52.90
76293;DHT22;65101;51.140;4.088;2023-01-01T02:51:46;19.50;52.90
76293;DHT22;65101;51.140;4.088;2023-01-01T03:05:23;19.40;53.20
76293;DHT22;65101;51.140;4.088;2023-01-01T03:07:56;19.40;52.90
76293;DHT22;65101;51.140;4.088;2023-01-01T03:21:09;19.30;53.30
76293;DHT22;65101;51.140;4.088;2023-01-01T03:23:49;19.30;53.40
76293;DHT22;65101;51.140;4.088;2023-01-01T03:26:20;19.30;53.40
76293;DHT22;65101;51.140;4.088;2023-01-01T03:28:51;19.20;53.50
76293;DHT22;65101;51.140;4.088;2023-01-01T03:31:20;19.20;53.60
76293;DHT22;65101;51.140;4.088;2023-01-01T03:33:51;19.20;53.70
76293;DHT22;65101;51.140;4.088;2023-01-01T03:36:24;19.10;53.80
76293;DHT22;65101;51.140;4.088;2023-01-01T03:38:57;19.20;53.60
76293;DHT22;65101;51.140;4.088;2023-01-01T03:41:45;19.10;53.90
76293;DHT22;65101;51.140;4.088;2023-01-01T03:44:23;19.10;54.00
76293;DHT22;65101;51.140;4.088;2023-01-01T03:46:50;19.10;53.90
76293;DHT22;65101;51.140;4.088;2023-01-01T03:49:17;19.10;53.90
76293;DHT22;65101;51.140;4.088;2023-01-01T04:00:24;19.10;54.10
76293;DHT22;65101;51.140;4.088;2023-01-01T04:05:39;19.10;54.00
76293;DHT22;65101;51.140;4.088;2023-01-01T04:08:05;19.00;54.20
76293;DHT22;65101;51.140;4.088;2023-01-01T04:10:33;19.00;54.30
76293;DHT22;65101;51.140;4.088;2023-01-01T04:13:02;19.00;54.20
76293;DHT22;65101;51.140;4.088;2023-01-01T04:15:29;19.00;54.20
76293;DHT22;65101;51.140;4.088;2023-01-01T04:17:55;18.90;54.30
76293;DHT22;65101;51.140;4.088;2023-01-01T04:20:22;19.00;54.30
76293;DHT22;65101;51.140;4.088;2023-01-01T04:22:48;18.90;54.30
76293;DHT22;65101;51.140;4.088;2023-01-01T04:25:14;18.90;54.40
76293;DHT22;65101;51.140;4.088;2023-01-01T04:27:41;18.90;54.40
76293;DHT22;65101;51.140;4.088;2023-01-01T04:30:09;18.90;54.50
76293;DHT22;65101;51.140;4.088;2023-01-01T04:32:35;18.80;54.40
76293;DHT22;65101;51.140;4.088;2023-01-01T04:35:00;18.80;54.60
76293;DHT22;65101;51.140;4.088;2023-01-01T04:37:26;18.90;54.70
76293;DHT22;65101;51.140;4.088;2023-01-01T04:39:52;18.80;54.60
76293;DHT22;65101;51.140;4.088;2023-01-01T04:42:18;18.80;54.60
76293;DHT22;65101;51.140;4.088;2023-01-01T04:44:43;18.80;54.60
76293;DHT22;65101;51.140;4.088;2023-01-01T04:47:09;18.80;54.70
76293;DHT22;65101;51.140;4.088;2023-01-01T04:49:35;18.80;54.70
76293;DHT22;65101;51.140;4.088;2023-01-01T04:52:01;18.80;54.70
76293;DHT22;65101;51.140;4.088;2023-01-01T04:54:27;18.70;54.60
76293;DHT22;65101;51.140;4.088;2023-01-01T04:56:53;18.80;54.90
76293;DHT22;65101;51.140;4.088;2023-01-01T04:59:19;18.80;54.90
76293;DHT22;65101;51.140;4.088;2023-01-01T05:01:44;18.70;54.90
76293;DHT22;65101;51.140;4.088;2023-01-01T05:04:12;18.80;54.90
76293;DHT22;65101;51.140;4.088;2023-01-01T05:06:38;18.70;55.00
76293;DHT22;65101;51.140;4.088;2023-01-01T05:09:04;18.70;55.00
76293;DHT22;65101;51.140;4.088;2023-01-01T05:11:30;18.70;55.10
76293;DHT22;65101;51.140;4.088;2023-01-01T05:14:00;18.70;55.10
76293;DHT22;65101;51.140;4.088;2023-01-01T05:16:28;18.60;55.10
76293;DHT22;65101;51.140;4.088;2023-01-01T05:18:55;18.60;55.20
76293;DHT22;65101;51.140;4.088;2023-01-01T05:21:24;18.60;55.20
76293;DHT22;65101;51.140;4.088;2023-01-01T05:24:01;18.60;55.30
76293;DHT22;65101;51.140;4.088;2023-01-01T05:26:33;18.60;55.40
76293;DHT22;65101;51.140;4.088;2023-01-01T05:29:00;18.60;55.40
76293;DHT22;65101;51.140;4.088;2023-01-01T05:31:28;18.50;55.40
76293;DHT22;65101;51.140;4.088;2023-01-01T05:33:54;18.60;55.40
76293;DHT22;65101;51.140;4.088;2023-01-01T05:36:24;18.60;55.50
76293;DHT22;65101;51.140;4.088;2023-01-01T05:38:50;18.50;55.60
76293;DHT22;65101;51.140;4.088;2023-01-01T05:41:17;18.50;55.60
76293;DHT22;65101;51.140;4.088;2023-01-01T05:43:44;18.50;56.30
76293;DHT22;65101;51.140;4.088;2023-01-01T05:46:15;18.40;55.70
76293;DHT22;65101;51.140;4.088;2023-01-01T05:48:42;18.50;55.90
76293;DHT22;65101;51.140;4.088;2023-01-01T05:51:10;18.40;55.90
76293;DHT22;65101;51.140;4.088;2023-01-01T05:53:36;18.40;56.00
76293;DHT22;65101;51.140;4.088;2023-01-01T05:56:03;18.40;56.00
76293;DHT22;65101;51.140;4.088;2023-01-01T05:58:29;18.40;56.00
76293;DHT22;65101;51.140;4.088;2023-01-01T06:00:56;18.40;56.00
76293;DHT22;65101;51.140;4.088;2023-01-01T06:03:22;18.40;56.10
76293;DHT22;65101;51.140;4.088;2023-01-01T06:05:48;18.40;56.10
76293;DHT22;65101;51.140;4.088;2023-01-01T06:08:13;18.40;56.30
76293;DHT22;65101;51.140;4.088;2023-01-01T06:10:39;18.40;56.40
76293;DHT22;65101;51.140;4.088;2023-01-01T06:13:05;18.30;56.40
76293;DHT22;65101;51.140;4.088;2023-01-01T06:15:31;18.30;57.00
76293;DHT22;65101;51.140;4.088;2023-01-01T06:17:57;18.30;56.40
76293;DHT22;65101;51.140;4.088;2023-01-01T06:20:23;18.30;56.50
76293;DHT22;65101;51.140;4.088;2023-01-01T06:22:49;18.30;56.50
76293;DHT22;65101;51.140;4.088;2023-01-01T06:25:15;18.30;56.60
76293;DHT22;65101;51.140;4.088;2023-01-01T06:27:40;18.30;56.50
76293;DHT22;65101;51.140;4.088;2023-01-01T06:30:07;18.30;56.70
76293;DHT22;65101;51.140;4.088;2023-01-01T06:32:33;18.20;56.60
76293;DHT22;65101;51.140;4.088;2023-01-01T06:34:58;18.20;56.60
76293;DHT22;65101;51.140;4.088;2023-01-01T06:37:26;18.20;56.70
76293;DHT22;65101;51.140;4.088;2023-01-01T06:39:51;18.20;56.70
76293;DHT22;65101;51.140;4.088;2023-01-01T06:42:17;18.20;56.80
76293;DHT22;65101;51.140;4.088;2023-01-01T06:44:43;18.20;56.90
76293;DHT22;65101;51.140;4.088;2023-01-01T06:47:08;18.20;56.90
76293;DHT22;65101;51.140;4.088;2023-01-01T06:49:34;18.20;57.00
76293;DHT22;65101;51.140;4.088;2023-01-01T06:51:59;18.20;57.00
76293;DHT22;65101;51.140;4.088;2023-01-01T06:54:25;18.10;56.90
76293;DHT22;65101;51.140;4.088;2023-01-01T06:56:51;18.10;56.90
76293;DHT22;65101;51.140;4.088;2023-01-01T06:59:16;18.10;57.00
76293;DHT22;65101;51.140;4.088;2023-01-01T07:01:42;18.10;57.00
76293;DHT22;65101;51.140;4.088;2023-01-01T07:04:13;18.10;57.10
76293;DHT22;65101;51.140;4.088;2023-01-01T07:06:39;18.10;57.10
76293;DHT22;65101;51.140;4.088;2023-01-01T07:09:06;18.10;57.10
76293;DHT22;65101;51.140;4.088;2023-01-01T07:11:33;18.10;57.00
76293;DHT22;65101;51.140;4.088;2023-01-01T07:13:59;18.10;57.10
76293;DHT22;65101;51.140;4.088;2023-01-01T07:16:25;18.10;57.10
76293;DHT22;65101;51.140;4.088;2023-01-01T07:18:51;18.10;57.30
76293;DHT22;65101;51.140;4.088;2023-01-01T07:21:32;18.00;57.20
76293;DHT22;65101;51.140;4.088;2023-01-01T07:23:59;18.10;57.30
76293;DHT22;65101;51.140;4.088;2023-01-01T07:26:26;18.00;57.30
76293;DHT22;65101;51.140;4.088;2023-01-01T07:28:52;18.10;57.30
76293;DHT22;65101;51.140;4.088;2023-01-01T07:31:18;18.00;57.30
76293;DHT22;65101;51.140;4.088;2023-01-01T07:33:43;18.00;57.30
76293;DHT22;65101;51.140;4.088;2023-01-01T07:36:09;18.00;57.40
76293;DHT22;65101;51.140;4.088;2023-01-01T07:38:35;18.00;57.40
76293;DHT22;65101;51.140;4.088;2023-01-01T07:41:01;18.00;57.50
76293;DHT22;65101;51.140;4.088;2023-01-01T07:43:26;18.00;57.50
76293;DHT22;65101;51.140;4.088;2023-01-01T07:45:52;18.00;57.50
76293;DHT22;65101;51.140;4.088;2023-01-01T07:48:18;18.00;57.50
76293;DHT22;65101;51.140;4.088;2023-01-01T07:50:43;18.00;57.50
76293;DHT22;65101;51.140;4.088;2023-01-01T07:53:09;18.00;57.60
76293;DHT22;65101;51.140;4.088;2023-01-01T07:55:35;18.00;57.60
76293;DHT22;65101;51.140;4.088;2023-01-01T07:58:01;18.10;57.50
76293;DHT22;65101;51.140;4.088;2023-01-01T08:00:27;18.20;57.50
76293;DHT22;65101;51.140;4.088;2023-01-01T08:02:53;18.30;57.30
76293;DHT22;65101;51.140;4.088;2023-01-01T08:05:19;18.40;56.80
76293;DHT22;65101;51.140;4.088;2023-01-01T08:07:49;18.50;56.40
76293;DHT22;65101;51.140;4.088;2023-01-01T08:10:15;18.70;56.20
76293;DHT22;65101;51.140;4.088;2023-01-01T08:12:41;18.80;55.80
76293;DHT22;65101;51.140;4.088;2023-01-01T08:15:08;18.90;55.50
76293;DHT22;65101;51.140;4.088;2023-01-01T08:17:34;19.00;55.40
76293;DHT22;65101;51.140;4.088;2023-01-01T08:20:00;19.10;55.30
76293;DHT22;65101;51.140;4.088;2023-01-01T08:22:26;19.10;55.10
76293;DHT22;65101;51.140;4.088;2023-01-01T08:24:51;19.20;54.90
76293;DHT22;65101;51.140;4.088;2023-01-01T08:27:17;19.20;54.80
76293;DHT22;65101;51.140;4.088;2023-01-01T08:29:43;19.30;54.60
76293;DHT22;65101;51.140;4.088;2023-01-01T08:32:10;19.30;54.50
76293;DHT22;65101;51.140;4.088;2023-01-01T08:34:35;19.40;54.30
76293;DHT22;65101;51.140;4.088;2023-01-01T08:37:01;19.50;54.40
76293;DHT22;65101;51.140;4.088;2023-01-01T08:39:27;19.70;54.00
76293;DHT22;65101;51.140;4.088;2023-01-01T08:41:52;19.70;53.90
76293;DHT22;65101;51.140;4.088;2023-01-01T08:44:18;19.70;53.80
76293;DHT22;65101;51.140;4.088;2023-01-01T08:46:44;19.80;53.70
76293;DHT22;65101;51.140;4.088;2023-01-01T08:49:10;19.80;53.70
76293;DHT22;65101;51.140;4.088;2023-01-01T08:51:35;19.90;53.60
76293;DHT22;65101;51.140;4.088;2023-01-01T08:54:01;19.90;53.60
76293;DHT22;65101;51.140;4.088;2023-01-01T08:56:27;20.00;53.50
76293;DHT22;65101;51.140;4.088;2023-01-01T08:58:53;20.10;53.60
76293;DHT22;65101;51.140;4.088;2023-01-01T09:01:18;20.10;54.10
76293;DHT22;65101;51.140;4.088;2023-01-01T09:03:49;20.10;53.50
76293;DHT22;65101;51.140;4.088;2023-01-01T09:06:15;20.20;53.50
76293;DHT22;65101;51.140;4.088;2023-01-01T09:08:40;20.20;53.60
76293;DHT22;65101;51.140;4.088;2023-01-01T09:11:06;20.10;53.70
76293;DHT22;65101;51.140;4.088;2023-01-01T09:13:32;20.20;53.90
76293;DHT22;65101;51.140;4.088;2023-01-01T09:15:59;20.20;53.70
76293;DHT22;65101;51.140;4.088;2023-01-01T09:18:25;20.20;53.60
76293;DHT22;65101;51.140;4.088;2023-01-01T09:20:51;20.30;53.50
76293;DHT22;65101;51.140;4.088;2023-01-01T09:23:16;20.30;53.50
76293;DHT22;65101;51.140;4.088;2023-01-01T09:25:42;20.40;53.40
76293;DHT22;65101;51.140;4.088;2023-01-01T09:28:11;20.40;53.50
76293;DHT22;65101;51.140;4.088;2023-01-01T09:30:37;20.50;53.40
76293;DHT22;65101;51.140;4.088;2023-01-01T09:33:03;20.50;53.30
76293;DHT22;65101;51.140;4.088;2023-01-01T09:35:29;20.50;53.20
76293;DHT22;65101;51.140;4.088;2023-01-01T09:37:56;20.60;53.20
76293;DHT22;65101;51.140;4.088;2023-01-01T09:41:13;20.60;53.00
76293;DHT22;65101;51.140;4.088;2023-01-01T09:46:05;20.70;53.20
76293;DHT22;65101;51.140;4.088;2023-01-01T09:48:32;20.70;53.00
76293;DHT22;65101;51.140;4.088;2023-01-01T09:51:03;20.80;52.90
76293;DHT22;65101;51.140;4.088;2023-01-01T09:53:41;20.80;53.10
76293;DHT22;65101;51.140;4.088;2023-01-01T09:56:12;20.80;52.80
76293;DHT22;65101;51.140;4.088;2023-01-01T09:58:38;20.80;53.00
76293;DHT22;65101;51.140;4.088;2023-01-01T10:06:28;20.90;53.20
76293;DHT22;65101;51.140;4.088;2023-01-01T10:12:04;20.90;52.80
76293;DHT22;65101;51.140;4.088;2023-01-01T10:14:35;20.90;52.80
76293;DHT22;65101;51.140;4.088;2023-01-01T10:17:07;21.00;52.70
76293;DHT22;65101;51.140;4.088;2023-01-01T10:19:43;21.00;52.60
76293;DHT22;65101;51.140;4.088;2023-01-01T10:22:17;21.00;52.70
76293;DHT22;65101;51.140;4.088;2023-01-01T10:24:45;21.10;52.60
76293;DHT22;65101;51.140;4.088;2023-01-01T10:29:49;21.10;52.70
76293;DHT22;65101;51.140;4.088;2023-01-01T10:32:31;21.10;52.60
76293;DHT22;65101;51.140;4.088;2023-01-01T10:34:58;21.10;52.60
76293;DHT22;65101;51.140;4.088;2023-01-01T10:37:29;21.20;52.70
76293;DHT22;65101;51.140;4.088;2023-01-01T10:39:55;21.20;52.50
76293;DHT22;65101;51.140;4.088;2023-01-01T10:42:21;21.20;52.40
76293;DHT22;65101;51.140;4.088;2023-01-01T10:44:49;21.30;52.30
76293;DHT22;65101;51.140;4.088;2023-01-01T10:47:28;21.30;52.30
76293;DHT22;65101;51.140;4.088;2023-01-01T10:50:01;21.30;52.40
76293;DHT22;65101;51.140;4.088;2023-01-01T10:52:37;21.30;52.40
76293;DHT22;65101;51.140;4.088;2023-01-01T10:55:05;21.40;52.30
76293;DHT22;65101;51.140;4.088;2023-01-01T10:57:36;21.30;52.30
76293;DHT22;65101;51.140;4.088;2023-01-01T11:00:22;21.30;52.40
76293;DHT22;65101;51.140;4.088;2023-01-01T11:03:18;21.30;52.30
76293;DHT22;65101;51.140;4.088;2023-01-01T11:08:29;21.40;52.30
76293;DHT22;65101;51.140;4.088;2023-01-01T11:11:01;21.50;52.20
76293;DHT22;65101;51.140;4.088;2023-01-01T11:13:28;21.50;52.00
76293;DHT22;65101;51.140;4.088;2023-01-01T11:15:54;21.40;52.40
76293;DHT22;65101;51.140;4.088;2023-01-01T11:18:25;21.30;52.70
76293;DHT22;65101;51.140;4.088;2023-01-01T11:20:56;21.30;52.30
76293;DHT22;65101;51.140;4.088;2023-01-01T11:23:38;21.20;52.60
76293;DHT22;65101;51.140;4.088;2023-01-01T11:28:41;21.30;52.60
76293;DHT22;65101;51.140;4.088;2023-01-01T11:31:16;21.30;52.50
76293;DHT22;65101;51.140;4.088;2023-01-01T11:33:50;21.30;52.40
76293;DHT22;65101;51.140;4.088;2023-01-01T11:39:14;21.30;52.20
76293;DHT22;65101;51.140;4.088;2023-01-01T11:41:45;21.40;52.20
76293;DHT22;65101;51.140;4.088;2023-01-01T11:44:20;21.40;52.10
76293;DHT22;65101;51.140;4.088;2023-01-01T11:46:48;21.40;52.20
76293;DHT22;65101;51.140;4.088;2023-01-01T11:49:26;21.40;52.20
76293;DHT22;65101;51.140;4.088;2023-01-01T11:51:52;21.40;52.20
76293;DHT22;65101;51.140;4.088;2023-01-01T11:54:30;21.40;52.20
76293;DHT22;65101;51.140;4.088;2023-01-01T11:56:59;21.50;52.10
76293;DHT22;65101;51.140;4.088;2023-01-01T11:59:31;21.50;52.40
76293;DHT22;65101;51.140;4.088;2023-01-01T12:02:02;21.60;52.30
76293;DHT22;65101;51.140;4.088;2023-01-01T12:09:54;21.70;52.00
76293;DHT22;65101;51.140;4.088;2023-01-01T12:12:41;21.70;52.20
76293;DHT22;65101;51.140;4.088;2023-01-01T12:15:32;21.70;51.90
76293;DHT22;65101;51.140;4.088;2023-01-01T12:21:24;21.70;51.90
76293;DHT22;65101;51.140;4.088;2023-01-01T12:23:50;21.70;52.00
76293;DHT22;65101;51.140;4.088;2023-01-01T12:29:13;21.60;52.60
76293;DHT22;65101;51.140;4.088;2023-01-01T12:34:42;21.70;51.90
76293;DHT22;65101;51.140;4.088;2023-01-01T12:43:14;21.70;51.90
76293;DHT22;65101;51.140;4.088;2023-01-01T12:46:08;21.80;51.80
76293;DHT22;65101;51.140;4.088;2023-01-01T12:52:08;21.70;52.00
76293;DHT22;65101;51.140;4.088;2023-01-01T12:57:45;21.70;52.00
76293;DHT22;65101;51.140;4.088;2023-01-01T13:00:15;21.70;51.90
76293;DHT22;65101;51.140;4.088;2023-01-01T13:02:51;21.80;51.70
76293;DHT22;65101;51.140;4.088;2023-01-01T13:05:35;21.80;51.70
76293;DHT22;65101;51.140;4.088;2023-01-01T13:08:03;21.80;52.00
76293;DHT22;65101;51.140;4.088;2023-01-01T13:10:34;21.80;51.80
76293;DHT22;65101;51.140;4.088;2023-01-01T13:13:02;21.80;51.90
76293;DHT22;65101;51.140;4.088;2023-01-01T13:20:44;21.80;51.70
76293;DHT22;65101;51.140;4.088;2023-01-01T13:39:59;21.70;52.20
76293;DHT22;65101;51.140;4.088;2023-01-01T13:45:05;21.70;52.20
76293;DHT22;65101;51.140;4.088;2023-01-01T13:58:58;21.80;52.40
76293;DHT22;65101;51.140;4.088;2023-01-01T14:01:35;21.70;52.40
76293;DHT22;65101;51.140;4.088;2023-01-01T14:04:09;21.80;52.50
76293;DHT22;65101;51.140;4.088;2023-01-01T14:06:41;21.80;52.50
76293;DHT22;65101;51.140;4.088;2023-01-01T14:09:13;21.80;52.50
76293;DHT22;65101;51.140;4.088;2023-01-01T14:11:40;21.70;52.70
76293;DHT22;65101;51.140;4.088;2023-01-01T14:14:24;21.70;52.70
76293;DHT22;65101;51.140;4.088;2023-01-01T14:16:54;21.70;52.80
76293;DHT22;65101;51.140;4.088;2023-01-01T14:19:21;21.70;52.70
76293;DHT22;65101;51.140;4.088;2023-01-01T14:21:47;21.70;52.70
76293;DHT22;65101;51.140;4.088;2023-01-01T14:24:15;21.70;52.80
76293;DHT22;65101;51.140;4.088;2023-01-01T14:26:42;21.70;52.80
76293;DHT22;65101;51.140;4.088;2023-01-01T14:29:09;21.70;52.80
76293;DHT22;65101;51.140;4.088;2023-01-01T14:31:42;21.70;52.70
76293;DHT22;65101;51.140;4.088;2023-01-01T14:34:29;21.70;52.70
76293;DHT22;65101;51.140;4.088;2023-01-01T14:37:00;21.70;52.80
76293;DHT22;65101;51.140;4.088;2023-01-01T14:39:28;21.70;52.70
76293;DHT22;65101;51.140;4.088;2023-01-01T14:41:59;21.70;52.50
76293;DHT22;65101;51.140;4.088;2023-01-01T14:44:39;21.70;52.70
76293;DHT22;65101;51.140;4.088;2023-01-01T14:47:26;21.60;52.90
76293;DHT22;65101;51.140;4.088;2023-01-01T14:49:59;21.50;52.90
76293;DHT22;65101;51.140;4.088;2023-01-01T14:52:27;21.60;53.30
76293;DHT22;65101;51.140;4.088;2023-01-01T14:54:55;21.60;52.70
76293;DHT22;65101;51.140;4.088;2023-01-01T14:57:26;21.60;52.70
76293;DHT22;65101;51.140;4.088;2023-01-01T14:59:53;21.60;52.70
76293;DHT22;65101;51.140;4.088;2023-01-01T15:04:50;21.50;53.10
76293;DHT22;65101;51.140;4.088;2023-01-01T15:07:21;21.50;53.20
76293;DHT22;65101;51.140;4.088;2023-01-01T15:09:48;21.60;53.00
76293;DHT22;65101;51.140;4.088;2023-01-01T15:12:14;21.60;53.00
76293;DHT22;65101;51.140;4.088;2023-01-01T15:14:42;21.60;52.80
76293;DHT22;65101;51.140;4.088;2023-01-01T15:17:12;21.60;53.30
76293;DHT22;65101;51.140;4.088;2023-01-01T15:19:40;21.60;53.00
76293;DHT22;65101;51.140;4.088;2023-01-01T15:22:26;21.70;53.00
76293;DHT22;65101;51.140;4.088;2023-01-01T15:24:52;21.70;53.10
76293;DHT22;65101;51.140;4.088;2023-01-01T15:27:23;21.70;52.90
76293;DHT22;65101;51.140;4.088;2023-01-01T15:29:49;21.80;52.80
76293;DHT22;65101;51.140;4.088;2023-01-01T15:32:18;21.80;52.80
76293;DHT22;65101;51.140;4.088;2023-01-01T15:34:51;21.80;52.70
76293;DHT22;65101;51.140;4.088;2023-01-01T15:37:28;21.80;52.70
76293;DHT22;65101;51.140;4.088;2023-01-01T15:39:57;21.70;52.60
76293;DHT22;65101;51.140;4.088;2023-01-01T15:42:38;21.80;52.50
76293;DHT22;65101;51.140;4.088;2023-01-01T15:45:29;21.80;52.50
76293;DHT22;65101;51.140;4.088;2023-01-01T15:47:57;21.80;52.80
76293;DHT22;65101;51.140;4.088;2023-01-01T15:50:38;21.80;52.60
76293;DHT22;65101;51.140;4.088;2023-01-01T15:53:21;21.90;52.40
76293;DHT22;65101;51.140;4.088;2023-01-01T15:56:02;21.90;52.40
76293;DHT22;65101;51.140;4.088;2023-01-01T16:01:03;22.00;52.50
76293;DHT22;65101;51.140;4.088;2023-01-01T16:03:32;21.90;52.50
76293;DHT22;65101;51.140;4.088;2023-01-01T16:05:58;21.90;52.50
76293;DHT22;65101;51.140;4.088;2023-01-01T16:08:24;21.90;52.60
76293;DHT22;65101;51.140;4.088;2023-01-01T16:10:51;21.90;52.70
76293;DHT22;65101;51.140;4.088;2023-01-01T16:13:17;21.90;52.60
76293;DHT22;65101;51.140;4.088;2023-01-01T16:16:01;21.90;52.60
76293;DHT22;65101;51.140;4.088;2023-01-01T16:18:30;21.90;52.80
76293;DHT22;65101;51.140;4.088;2023-01-01T16:20:56;21.80;53.00
76293;DHT22;65101;51.140;4.088;2023-01-01T16:23:22;21.80;53.00
76293;DHT22;65101;51.140;4.088;2023-01-01T16:25:48;21.80;53.10
76293;DHT22;65101;51.140;4.088;2023-01-01T16:28:14;21.80;53.00
76293;DHT22;65101;51.140;4.088;2023-01-01T16:30:41;21.80;53.00
76293;DHT22;65101;51.140;4.088;2023-01-01T16:33:13;21.80;53.10
76293;DHT22;65101;51.140;4.088;2023-01-01T16:35:39;21.80;53.20
76293;DHT22;65101;51.140;4.088;2023-01-01T16:38:05;21.80;53.20
76293;DHT22;65101;51.140;4.088;2023-01-01T16:40:30;21.70;53.40
76293;DHT22;65101;51.140;4.088;2023-01-01T16:42:56;21.70;53.30
76293;DHT22;65101;51.140;4.088;2023-01-01T16:45:22;21.80;53.10
76293;DHT22;65101;51.140;4.088;2023-01-01T16:47:48;21.80;53.10
76293;DHT22;65101;51.140;4.088;2023-01-01T16:50:13;21.80;53.30
76293;DHT22;65101;51.140;4.088;2023-01-01T16:52:39;21.80;53.20
76293;DHT22;65101;51.140;4.088;2023-01-01T16:55:05;21.80;53.10
76293;DHT22;65101;51.140;4.088;2023-01-01T16:57:31;21.80;53.10
76293;DHT22;65101;51.140;4.088;2023-01-01T16:59:57;21.80;53.20
76293;DHT22;65101;51.140;4.088;2023-01-01T17:02:23;21.80;53.20
76293;DHT22;65101;51.140;4.088;2023-01-01T17:04:49;21.80;53.00
76293;DHT22;65101;51.140;4.088;2023-01-01T17:07:14;21.90;53.00
76293;DHT22;65101;51.140;4.088;2023-01-01T17:09:41;21.80;53.30
76293;DHT22;65101;51.140;4.088;2023-01-01T17:12:07;21.80;53.20
76293;DHT22;65101;51.140;4.088;2023-01-01T17:14:32;21.80;53.10
76293;DHT22;65101;51.140;4.088;2023-01-01T17:16:58;21.90;53.10
76293;DHT22;65101;51.140;4.088;2023-01-01T17:19:24;21.80;53.20
76293;DHT22;65101;51.140;4.088;2023-01-01T17:21:49;21.80;53.20
76293;DHT22;65101;51.140;4.088;2023-01-01T17:24:16;21.90;53.20
76293;DHT22;65101;51.140;4.088;2023-01-01T17:26:43;21.80;53.20
76293;DHT22;65101;51.140;4.088;2023-01-01T17:29:09;21.80;53.40
76293;DHT22;65101;51.140;4.088;2023-01-01T17:31:35;21.80;54.00
76293;DHT22;65101;51.140;4.088;2023-01-01T17:34:01;21.80;53.40
76293;DHT22;65101;51.140;4.088;2023-01-01T17:36:26;21.80;53.50
76293;DHT22;65101;51.140;4.088;2023-01-01T17:38:52;21.80;53.60
76293;DHT22;65101;51.140;4.088;2023-01-01T17:41:18;21.80;53.40
76293;DHT22;65101;51.140;4.088;2023-01-01T17:43:46;21.80;53.40
76293;DHT22;65101;51.140;4.088;2023-01-01T17:46:24;21.90;53.30
76293;DHT22;65101;51.140;4.088;2023-01-01T17:48:50;21.80;53.40
76293;DHT22;65101;51.140;4.088;2023-01-01T17:51:17;21.80;53.30